Time;durP1;ratioP1;P1;durP2;ratioP2;P2;SDS_P1;SDS_P2;PMS_P1;PMS_P2;Temp;Humidity;BMP_temperature;BMP_pressure;BME280_temperature;BME280_humidity;BME280_pressure;Samples;Min_cycle;Max_cycle;Signal;HPM_P1;HPM_P2
2021/03/19 00:04:48;;;;;;;89.75;41.43;;;;;;;2.15;53.84;98983.48;252092;1153;114671;-71
2021/03/19 00:09:52;;;;;;;85.63;39.75;;;;;;;2.17;53.90;98975.55;252080;1146;114823;-78
2021/03/19 00:14:55;;;;;;;81.00;38.37;;;;;;;2.19;53.73;98977.23;250613;1146;114776;-69
2021/03/19 00:19:57;;;;;;;88.85;39.90;;;;;;;2.20;53.85;98970.20;246373;1153;115095;-69
2021/03/19 00:25:00;;;;;;;88.05;41.45;;;;;;;2.18;53.99;98977.28;249588;1147;114650;-71
2021/03/19 00:30:07;;;;;;;77.35;38.30;;;;;;;2.14;53.42;98976.52;252041;1146;115349;-72
2021/03/19 00:35:12;;;;;;;78.98;39.60;;;;;;;2.12;53.69;98973.92;250696;1146;115699;-76
2021/03/19 00:40:15;;;;;;;82.80;38.00;;;;;;;2.12;53.94;98968.67;249947;1153;114885;-75
2021/03/19 00:45:18;;;;;;;85.65;39.15;;;;;;;2.14;53.54;98966.02;249218;1153;115160;-70
2021/03/19 00:50:27;;;;;;;73.83;34.93;;;;;;;2.15;53.87;98964.25;251494;1146;114875;-76
2021/03/19 00:55:30;;;;;;;84.67;40.30;;;;;;;2.12;53.82;98966.05;250848;1153;114770;-69
2021/03/19 01:00:36;;;;;;;78.55;36.18;;;;;;;2.11;53.85;98966.10;252070;1146;115051;-70
2021/03/19 01:05:43;;;;;;;68.00;33.00;;;;;;;2.07;53.56;98967.95;251815;1146;114686;-76
2021/03/19 01:10:52;;;;;;;74.75;36.80;;;;;;;1.97;53.81;98957.73;250063;1146;114676;-73
2021/03/19 01:15:55;;;;;;;75.98;39.28;;;;;;;1.88;53.23;98953.63;251963;1146;114951;-71
2021/03/19 01:20:59;;;;;;;75.67;36.10;;;;;;;1.77;53.54;98959.19;251993;1147;114704;-71
2021/03/19 01:26:01;;;;;;;80.00;36.30;;;;;;;1.73;53.98;98957.52;251943;1153;115238;-71
2021/03/19 01:31:06;;;;;;;73.48;34.88;;;;;;;1.74;53.76;98961.89;251982;1146;114579;-76
2021/03/19 01:36:08;;;;;;;80.35;36.05;;;;;;;1.78;54.16;98966.14;252040;1145;114659;-76
2021/03/19 01:41:11;;;;;;;67.30;31.15;;;;;;;1.82;54.30;98966.91;251975;1146;114890;-76
2021/03/19 01:46:50;;;;;;;72.48;34.10;;;;;;;1.88;54.22;98957.11;251635;1153;115009;-71
2021/03/19 01:52:30;;;;;;;71.15;32.80;;;;;;;1.91;54.08;98953.55;252019;1144;114637;-77
2021/03/19 01:58:09;;;;;;;72.45;34.75;;;;;;;1.91;54.40;98958.80;250620;1153;114879;-75
2021/03/19 02:03:50;;;;;;;68.80;32.23;;;;;;;1.88;54.02;98954.48;247753;1153;114848;-75
2021/03/19 02:09:29;;;;;;;64.27;31.83;;;;;;;1.79;54.18;98957.36;251321;1146;114583;-70
2021/03/19 02:15:09;;;;;;;66.78;33.00;;;;;;;1.78;54.04;98957.41;250730;1146;114752;-76
2021/03/19 02:20:48;;;;;;;67.43;33.47;;;;;;;1.74;54.44;98954.02;252042;1147;114714;-71
2021/03/19 02:26:28;;;;;;;68.80;32.65;;;;;;;1.71;54.81;98959.34;250250;1146;115055;-73
2021/03/19 02:31:49;;;;;;;61.78;29.88;;;;;;;1.73;54.74;98956.66;252053;1146;114814;-71
2021/03/19 02:36:51;;;;;;;55.10;29.00;;;;;;;1.71;54.78;98958.49;248757;1146;115454;-71
2021/03/19 02:41:53;;;;;;;60.60;30.45;;;;;;;1.67;54.93;98954.23;249339;1146;115297;-70
2021/03/19 02:46:55;;;;;;;55.50;28.50;;;;;;;1.62;55.09;98949.95;251765;1153;115060;-70
2021/03/19 02:51:58;;;;;;;47.73;25.23;;;;;;;1.61;55.09;98952.63;251364;1146;114949;-75
2021/03/19 02:57:00;;;;;;;43.78;24.40;;;;;;;1.60;55.29;98961.41;250434;1146;114916;-75
2021/03/19 03:02:03;;;;;;;49.08;23.85;;;;;;;1.56;55.18;98964.99;252006;1145;114771;-75
2021/03/19 03:07:05;;;;;;;42.33;21.53;;;;;;;1.51;55.22;98961.65;251989;1146;115380;-70
2021/03/19 03:12:07;;;;;;;38.07;20.73;;;;;;;1.51;55.27;98964.27;252006;1146;114869;-76
2021/03/19 03:17:10;;;;;;;43.27;21.53;;;;;;;1.53;55.56;98967.69;248230;1147;114882;-72
2021/03/19 03:22:13;;;;;;;50.03;22.43;;;;;;;1.48;55.54;98964.34;250394;1146;115132;-75
2021/03/19 03:27:15;;;;;;;43.47;21.90;;;;;;;1.44;55.46;98958.33;251772;1153;114725;-70
2021/03/19 03:32:18;;;;;;;40.95;20.73;;;;;;;1.38;55.77;98963.72;250505;1153;115228;-75
2021/03/19 03:37:20;;;;;;;39.67;20.87;;;;;;;1.33;55.86;98974.34;251892;1153;114799;-72
2021/03/19 03:42:22;;;;;;;44.88;22.18;;;;;;;1.28;55.73;98970.11;249654;1146;114951;-71
2021/03/19 03:47:25;;;;;;;41.00;20.90;;;;;;;1.25;55.81;98981.52;251994;1146;115652;-71
2021/03/19 03:52:27;;;;;;;41.60;21.73;;;;;;;1.20;56.12;98964.21;251278;1145;114617;-77
2021/03/19 03:57:29;;;;;;;72.67;34.13;;;;;;;1.15;55.91;98964.31;250417;1153;115127;-70
2021/03/19 04:02:34;;;;;;;71.98;34.55;;;;;;;1.12;55.90;98972.24;252061;1146;114968;-70
2021/03/19 04:07:37;;;;;;;73.40;34.97;;;;;;;1.07;56.19;98961.03;251980;1147;114806;-75
2021/03/19 04:12:39;;;;;;;81.07;36.43;;;;;;;1.00;56.31;98959.47;252014;1146;114804;-68
2021/03/19 04:17:44;;;;;;;84.78;38.03;;;;;;;0.91;55.84;98965.78;251982;1153;114884;-70
2021/03/19 04:22:46;;;;;;;75.65;34.15;;;;;;;0.86;56.36;98963.28;249934;1146;114835;-73
2021/03/19 04:27:52;;;;;;;77.83;36.07;;;;;;;0.87;56.49;98972.84;251989;1153;114923;-69
2021/03/19 04:32:56;;;;;;;71.80;35.20;;;;;;;0.90;56.32;98966.69;252068;1146;115052;-74
2021/03/19 04:38:03;;;;;;;74.88;35.05;;;;;;;0.92;56.34;98968.38;252010;1146;114563;-75
2021/03/19 04:43:06;;;;;;;69.95;32.10;;;;;;;0.93;56.32;98971.85;252035;1145;115125;-70
2021/03/19 04:48:08;;;;;;;71.93;33.03;;;;;;;0.89;56.56;98967.59;251980;1153;115206;-69
2021/03/19 04:53:11;;;;;;;75.07;35.60;;;;;;;0.92;56.31;98970.14;250629;1146;115344;-76
2021/03/19 04:58:13;;;;;;;89.23;36.88;;;;;;;0.94;56.07;98971.80;251505;1146;114964;-70
2021/03/19 05:03:15;;;;;;;81.80;38.38;;;;;;;0.95;56.35;98977.89;249881;1146;114820;-70
2021/03/19 05:08:18;;;;;;;94.48;40.85;;;;;;;0.94;56.21;98982.28;251992;1146;114839;-71
2021/03/19 05:13:20;;;;;;;85.13;40.48;;;;;;;0.90;56.66;98972.78;251161;1146;114918;-70
2021/03/19 05:18:22;;;;;;;95.20;42.80;;;;;;;0.86;56.50;98978.14;252027;1153;114773;-75
2021/03/19 05:23:32;;;;;;;95.83;44.98;;;;;;;0.87;56.81;98987.71;249195;1145;114988;-70
2021/03/19 05:28:35;;;;;;;95.22;44.35;;;;;;;0.92;57.05;98983.24;251808;1153;114968;-70
2021/03/19 05:33:47;;;;;;;96.10;43.78;;;;;;;0.92;56.59;98989.34;252043;1146;114812;-70
2021/03/19 05:38:51;;;;;;;85.83;41.85;;;;;;;0.94;56.59;98997.14;250537;1153;114680;-76
2021/03/19 05:44:11;;;;;;;85.27;40.00;;;;;;;0.99;56.65;98997.05;250178;1145;115971;-72
2021/03/19 05:49:19;;;;;;;83.95;37.50;;;;;;;1.01;56.11;98995.23;249590;1152;114769;-72
2021/03/19 05:54:30;;;;;;;80.15;37.93;;;;;;;0.98;56.37;99001.41;250603;1145;114914;-71
2021/03/19 05:59:43;;;;;;;72.25;35.63;;;;;;;0.96;56.06;99005.84;249701;1153;114872;-78
2021/03/19 06:04:58;;;;;;;79.43;37.60;;;;;;;1.00;56.65;99017.97;248759;1146;114907;-76
2021/03/19 06:10:22;;;;;;;78.10;35.13;;;;;;;1.02;56.42;99010.94;250543;1153;114815;-76
2021/03/19 06:15:38;;;;;;;80.20;36.40;;;;;;;1.06;56.66;99020.45;249778;1146;114613;-72
2021/03/19 06:20:50;;;;;;;86.35;40.65;;;;;;;1.15;57.03;99037.69;250687;1146;114722;-75
2021/03/19 06:26:05;;;;;;;82.95;40.75;;;;;;;1.26;56.94;99034.80;251966;1146;115147;-75
2021/03/19 06:31:23;;;;;;;80.37;37.60;;;;;;;1.35;56.55;99034.59;250978;1153;114708;-78
2021/03/19 06:36:26;;;;;;;80.45;38.95;;;;;;;1.48;56.98;99045.64;250978;1153;114821;-76
2021/03/19 06:41:31;;;;;;;77.85;38.78;;;;;;;1.61;57.13;99037.41;250051;1147;114805;-73
2021/03/19 06:46:42;;;;;;;74.65;34.55;;;;;;;1.80;57.12;99040.44;251661;1145;114804;-73
2021/03/19 06:51:49;;;;;;;67.25;33.60;;;;;;;1.87;56.95;99039.36;250792;1146;115025;-76
2021/03/19 06:57:10;;;;;;;75.10;35.15;;;;;;;1.98;56.84;99041.69;251625;1146;115134;-69
2021/03/19 07:02:31;;;;;;;67.08;33.70;;;;;;;2.17;56.56;99039.41;250846;1146;114732;-70
2021/03/19 07:07:46;;;;;;;59.80;30.47;;;;;;;2.37;56.62;99044.09;249393;1146;114903;-75
2021/03/19 07:12:56;;;;;;;55.05;28.08;;;;;;;2.53;56.43;99047.14;252101;1146;114922;-75
2021/03/19 07:18:03;;;;;;;52.63;29.30;;;;;;;2.58;56.15;99046.11;249540;1153;115326;-71
2021/03/19 07:23:11;;;;;;;53.97;28.63;;;;;;;2.60;55.97;99049.53;248600;1146;114724;-70
2021/03/19 07:28:34;;;;;;;45.78;24.78;;;;;;;2.63;55.77;99052.99;249374;1146;114805;-71
2021/03/19 07:34:06;;;;;;;47.70;25.00;;;;;;;2.66;55.91;99058.16;251139;1146;114705;-74
2021/03/19 07:39:27;;;;;;;48.13;24.97;;;;;;;2.72;56.06;99060.61;250875;1146;114883;-71
2021/03/19 07:44:54;;;;;;;46.08;24.13;;;;;;;2.75;56.02;99064.00;251152;1153;115008;-75
2021/03/19 07:50:11;;;;;;;46.83;24.30;;;;;;;2.86;55.96;99052.30;250305;1146;115008;-70
2021/03/19 07:55:39;;;;;;;39.30;23.07;;;;;;;2.88;55.59;99061.84;248693;1146;115090;-69
2021/03/19 08:00:49;;;;;;;39.43;19.93;;;;;;;2.94;55.75;99058.17;249652;1147;114800;-74
2021/03/19 08:05:53;;;;;;;39.18;20.70;;;;;;;3.04;56.04;99060.47;250345;1145;114801;-72
2021/03/19 08:11:10;;;;;;;33.93;19.07;;;;;;;3.16;56.01;99060.98;249349;1147;114988;-69
2021/03/19 08:16:25;;;;;;;33.48;18.38;;;;;;;3.20;55.71;99063.48;249078;1146;115284;-70
2021/03/19 08:21:38;;;;;;;34.47;18.53;;;;;;;3.31;56.02;99058.73;249974;1145;114830;-75
2021/03/19 08:26:47;;;;;;;34.10;18.38;;;;;;;3.46;55.93;99049.47;249329;1147;114910;-77
2021/03/19 08:32:13;;;;;;;35.90;18.23;;;;;;;3.59;56.23;99044.67;248726;1146;117703;-75
2021/03/19 08:37:38;;;;;;;31.15;18.30;;;;;;;3.71;55.85;99049.53;251928;1146;115007;-69
2021/03/19 08:42:47;;;;;;;31.23;16.53;;;;;;;3.81;55.48;99050.08;251518;1153;114880;-76
2021/03/19 08:47:54;;;;;;;23.10;15.65;;;;;;;3.86;55.13;99047.27;249521;1147;114532;-71
2021/03/19 08:53:14;;;;;;;23.08;15.35;;;;;;;3.87;54.99;99044.58;250026;1146;114969;-75
2021/03/19 08:58:26;;;;;;;24.60;16.25;;;;;;;3.92;55.19;99045.29;249918;1146;115105;-72
2021/03/19 09:03:37;;;;;;;27.33;16.30;;;;;;;3.96;54.99;99033.73;249491;1146;115097;-75
2021/03/19 09:08:52;;;;;;;25.03;14.93;;;;;;;4.04;54.57;99038.72;250198;1144;114972;-68
2021/03/19 09:13:59;;;;;;;25.40;15.83;;;;;;;4.12;54.60;99038.47;249515;1146;115174;-76
2021/03/19 09:19:02;;;;;;;21.77;13.83;;;;;;;4.16;54.90;99032.17;248698;1146;115025;-75
2021/03/19 09:24:14;;;;;;;24.80;13.80;;;;;;;4.16;54.12;99035.66;248258;1153;114964;-76
2021/03/19 09:29:19;;;;;;;22.60;14.35;;;;;;;4.08;53.92;99037.72;248415;1147;114667;-76
2021/03/19 09:34:42;;;;;;;21.63;13.65;;;;;;;4.05;53.70;99043.09;251769;1146;115342;-74
2021/03/19 09:39:59;;;;;;;21.40;14.60;;;;;;;3.97;53.47;99030.20;250289;1145;115226;-72
2021/03/19 09:45:02;;;;;;;24.95;15.75;;;;;;;3.97;53.69;99032.84;248598;1147;115150;-73
2021/03/19 09:50:18;;;;;;;21.87;14.47;;;;;;;4.06;54.24;99038.68;249030;1146;115469;-74
2021/03/19 09:55:24;;;;;;;19.83;13.23;;;;;;;4.13;54.03;99035.77;249234;1147;116090;-70
2021/03/19 10:00:27;;;;;;;20.98;14.13;;;;;;;4.16;53.93;99035.66;250020;1146;116188;-77
2021/03/19 10:05:37;;;;;;;23.33;13.90;;;;;;;4.22;53.93;99029.32;249514;1148;115001;-72
2021/03/19 10:10:43;;;;;;;22.23;14.50;;;;;;;4.27;53.78;99035.27;250551;1153;115177;-76
2021/03/19 10:15:55;;;;;;;23.38;15.30;;;;;;;4.31;54.07;99034.23;249739;1146;114838;-70
2021/03/19 10:21:20;;;;;;;21.00;13.75;;;;;;;4.34;53.91;99047.30;251482;1146;115156;-76
2021/03/19 10:26:31;;;;;;;20.60;13.80;;;;;;;4.35;54.21;99048.14;248394;1146;115125;-70
2021/03/19 10:31:44;;;;;;;22.20;14.70;;;;;;;4.41;53.97;99045.30;251550;1147;115543;-77
2021/03/19 10:37:05;;;;;;;25.73;15.57;;;;;;;4.57;54.89;99046.45;250781;1153;115538;-70
2021/03/19 10:42:30;;;;;;;23.40;15.68;;;;;;;4.71;54.16;99041.50;249386;1145;114910;-72
2021/03/19 10:47:32;;;;;;;26.73;15.67;;;;;;;4.80;54.18;99037.67;249942;1147;114741;-78
2021/03/19 10:52:45;;;;;;;22.48;14.80;;;;;;;4.91;54.15;99032.83;249769;1153;115203;-79
2021/03/19 10:57:50;;;;;;;20.00;14.17;;;;;;;5.03;54.35;99033.26;251768;1153;115104;-74
2021/03/19 11:02:58;;;;;;;22.88;14.50;;;;;;;5.17;54.10;99026.53;251190;1146;114952;-79
2021/03/19 11:08:15;;;;;;;19.55;13.95;;;;;;;5.26;53.09;99027.92;252051;1145;115147;-80
2021/03/19 11:13:25;;;;;;;21.60;14.15;;;;;;;5.21;53.30;99016.71;250188;1146;114856;-73
2021/03/19 11:18:34;;;;;;;21.60;13.08;;;;;;;5.13;52.94;99024.06;250245;1153;115136;-72
2021/03/19 11:23:42;;;;;;;18.17;12.13;;;;;;;4.93;52.84;99038.92;251994;1146;115167;-78
2021/03/19 11:28:47;;;;;;;17.50;11.23;;;;;;;4.66;53.21;99038.20;249854;1145;114627;-73
2021/03/19 11:33:58;;;;;;;15.40;11.00;;;;;;;4.36;53.68;99041.98;249061;1146;114890;-78
2021/03/19 11:39:20;;;;;;;17.73;10.35;;;;;;;4.03;54.00;99051.03;250590;1146;115979;-75
2021/03/19 11:44:23;;;;;;;18.48;11.18;;;;;;;3.85;54.93;99040.30;251868;1146;114541;-78
2021/03/19 11:49:26;;;;;;;15.87;10.53;;;;;;;3.75;55.38;99032.72;252021;1146;115422;-73
2021/03/19 11:54:28;;;;;;;15.33;10.97;;;;;;;3.78;55.27;99037.02;251377;1146;114986;-73
2021/03/19 11:59:31;;;;;;;16.10;11.17;;;;;;;3.95;55.84;99031.16;252005;1146;114721;-73
2021/03/19 12:04:33;;;;;;;19.80;12.25;;;;;;;4.69;56.63;99027.55;251759;1153;114901;-73
2021/03/19 12:09:37;;;;;;;21.77;14.70;;;;;;;5.36;56.36;99025.77;251940;1153;114822;-78
2021/03/19 12:14:40;;;;;;;20.45;14.18;;;;;;;5.73;55.01;99014.53;251966;1146;114665;-80
2021/03/19 12:19:42;;;;;;;22.30;16.00;;;;;;;6.00;54.98;99012.52;251802;1153;115288;-76
2021/03/19 12:24:45;;;;;;;26.00;16.50;;;;;;;6.34;54.45;99006.58;251234;1147;115503;-73
2021/03/19 12:29:48;;;;;;;21.53;14.63;;;;;;;6.17;53.29;99014.41;251879;1153;115049;-72
2021/03/19 12:34:50;;;;;;;20.50;15.60;;;;;;;5.96;53.92;99007.44;251660;1146;114814;-77
2021/03/19 12:39:53;;;;;;;19.97;14.67;;;;;;;5.94;54.11;99010.13;251954;1146;114985;-77
2021/03/19 12:44:55;;;;;;;19.23;13.00;;;;;;;6.03;53.23;99008.89;251954;1145;114867;-72
2021/03/19 12:49:58;;;;;;;22.40;13.75;;;;;;;6.15;53.58;99005.72;251271;1153;114892;-74
2021/03/19 12:55:04;;;;;;;15.75;11.43;;;;;;;6.54;53.47;99008.31;251710;1153;115138;-77
2021/03/19 13:00:08;;;;;;;21.68;10.65;;;;;;;6.57;52.10;98994.11;252037;1144;114754;-71
2021/03/19 13:05:19;;;;;;;19.65;10.50;;;;;;;6.70;52.12;98991.75;251799;1146;114578;-71
2021/03/19 13:10:24;;;;;;;17.13;9.30;;;;;;;6.69;51.57;98985.61;252018;1145;114827;-72
2021/03/19 13:15:31;;;;;;;15.35;10.20;;;;;;;6.63;51.59;98983.25;252017;1146;114961;-72
2021/03/19 13:20:36;;;;;;;12.33;7.75;;;;;;;6.70;50.29;98984.67;249092;1145;114582;-78
2021/03/19 13:25:41;;;;;;;18.40;7.35;;;;;;;6.66;50.01;98977.82;251643;1146;115135;-77
2021/03/19 13:30:46;;;;;;;11.03;8.23;;;;;;;6.45;50.15;98981.44;251023;1146;114813;-70
2021/03/19 13:35:52;;;;;;;13.20;8.33;;;;;;;6.39;50.09;98987.89;249172;1146;115355;-71
2021/03/19 13:40:57;;;;;;;14.30;9.15;;;;;;;6.54;50.72;98992.45;252012;1153;114496;-77
2021/03/19 13:46:00;;;;;;;17.68;11.00;;;;;;;6.32;50.59;98994.39;250457;1146;115165;-77
2021/03/19 13:51:05;;;;;;;16.37;10.43;;;;;;;6.10;51.48;99002.41;252012;1147;114869;-71
2021/03/19 13:56:10;;;;;;;12.47;8.97;;;;;;;5.94;51.06;98996.92;251953;1145;115275;-71
2021/03/19 14:01:14;;;;;;;13.50;9.07;;;;;;;5.80;50.84;98991.36;251977;1145;114508;-71
2021/03/19 14:06:19;;;;;;;14.83;8.90;;;;;;;5.67;50.72;98993.66;252004;1145;115296;-73
2021/03/19 14:11:22;;;;;;;15.55;8.45;;;;;;;5.57;50.63;98992.34;251884;1145;115297;-72
2021/03/19 14:16:25;;;;;;;14.45;7.60;;;;;;;5.51;49.58;99005.83;251972;1145;114487;-77
2021/03/19 14:21:28;;;;;;;8.68;5.83;;;;;;;5.45;49.76;99005.14;251971;1153;114862;-72
2021/03/19 14:26:31;;;;;;;12.15;6.83;;;;;;;5.38;48.85;99003.68;251987;1146;114564;-72
2021/03/19 14:31:33;;;;;;;13.73;6.87;;;;;;;5.33;49.34;99003.03;251708;1146;115690;-72
2021/03/19 14:36:37;;;;;;;11.83;6.65;;;;;;;5.32;49.32;99005.72;251924;1146;114645;-72
2021/03/19 14:41:39;;;;;;;10.90;6.40;;;;;;;5.36;49.04;99002.02;248277;1153;114632;-77
2021/03/19 14:46:44;;;;;;;15.40;6.60;;;;;;;5.38;49.02;99010.75;251818;1146;115183;-71
2021/03/19 14:51:46;;;;;;;14.20;10.10;;;;;;;5.32;49.21;99022.40;248921;1146;114742;-79
2021/03/19 14:56:49;;;;;;;16.08;11.40;;;;;;;5.00;50.50;99015.80;251628;1146;114759;-79
2021/03/19 15:01:52;;;;;;;18.20;11.33;;;;;;;4.79;50.95;99017.52;251991;1146;114791;-78
2021/03/19 15:06:54;;;;;;;16.30;10.85;;;;;;;4.66;50.99;99021.53;252327;1146;115009;-71
2021/03/19 15:11:57;;;;;;;15.53;10.40;;;;;;;4.52;51.95;99032.60;251843;1146;114796;-72
2021/03/19 15:16:59;;;;;;;18.10;11.17;;;;;;;4.40;52.13;99020.73;252006;1146;114877;-71
2021/03/19 15:22:02;;;;;;;17.13;9.85;;;;;;;4.31;52.69;99023.69;252012;1153;114869;-76
2021/03/19 15:27:06;;;;;;;16.93;11.15;;;;;;;4.28;52.61;99026.47;251901;1146;114445;-71
2021/03/19 15:32:09;;;;;;;19.17;11.23;;;;;;;4.17;53.13;99032.10;251964;1153;115467;-71
2021/03/19 15:37:11;;;;;;;17.30;10.37;;;;;;;4.11;53.38;99037.61;251994;1146;114923;-73
2021/03/19 15:42:14;;;;;;;19.03;11.05;;;;;;;4.07;53.58;99035.98;251087;1153;115843;-71
2021/03/19 15:47:16;;;;;;;20.33;10.83;;;;;;;4.01;53.75;99038.86;252046;1145;114769;-78
2021/03/19 15:52:19;;;;;;;18.25;10.78;;;;;;;3.96;54.03;99033.73;250556;1146;115385;-72
2021/03/19 15:57:21;;;;;;;19.63;11.50;;;;;;;3.92;53.93;99040.02;251995;1148;114703;-77
2021/03/19 16:02:25;;;;;;;22.68;11.45;;;;;;;3.86;54.33;99044.64;251729;1146;114968;-77
2021/03/19 16:07:28;;;;;;;21.20;11.45;;;;;;;3.82;54.50;99049.16;250090;1146;115680;-71
2021/03/19 16:12:31;;;;;;;19.88;12.58;;;;;;;3.81;54.90;99050.08;251192;1146;114965;-77
2021/03/19 16:17:33;;;;;;;18.73;11.55;;;;;;;3.76;55.02;99054.63;251935;1146;114631;-71
2021/03/19 16:22:36;;;;;;;24.43;11.77;;;;;;;3.72;54.96;99050.38;251607;1153;114665;-77
2021/03/19 16:27:39;;;;;;;23.77;12.37;;;;;;;3.74;55.30;99070.48;250589;1146;115152;-73
2021/03/19 16:32:42;;;;;;;17.93;10.37;;;;;;;3.76;55.12;99070.41;251695;1153;114795;-71
2021/03/19 16:37:45;;;;;;;18.40;11.25;;;;;;;3.73;55.16;99078.41;251974;1146;115201;-78
2021/03/19 16:42:48;;;;;;;18.08;10.73;;;;;;;3.61;55.18;99078.84;251574;1146;114894;-76
2021/03/19 16:47:50;;;;;;;20.33;11.73;;;;;;;3.52;55.35;99080.84;251417;1146;114941;-71
2021/03/19 16:52:57;;;;;;;25.40;12.10;;;;;;;3.50;55.64;99081.83;249572;1146;115103;-70
2021/03/19 16:58:07;;;;;;;20.15;12.93;;;;;;;3.51;55.87;99084.39;250986;1146;115049;-77
2021/03/19 17:03:16;;;;;;;19.23;12.43;;;;;;;3.43;55.69;99086.42;251354;1153;114958;-70
2021/03/19 17:08:23;;;;;;;21.63;12.55;;;;;;;3.42;56.01;99089.09;251107;1145;115203;-77
2021/03/19 17:13:32;;;;;;;24.20;11.98;;;;;;;3.39;56.00;99086.55;251472;1153;115029;-71
2021/03/19 17:18:39;;;;;;;24.50;13.48;;;;;;;3.35;56.25;99090.20;251964;1146;115207;-70
2021/03/19 17:23:44;;;;;;;26.50;12.93;;;;;;;3.34;56.41;99097.23;250920;1153;114956;-77
2021/03/19 17:28:50;;;;;;;22.10;13.40;;;;;;;3.32;56.66;99101.67;251378;1145;114905;-77
2021/03/19 17:33:59;;;;;;;24.90;13.60;;;;;;;3.28;56.88;99106.16;250428;1146;115366;-69
2021/03/19 17:39:03;;;;;;;26.77;16.03;;;;;;;3.21;56.91;99106.41;249547;1146;115525;-76
2021/03/19 17:44:06;;;;;;;25.75;17.00;;;;;;;3.16;57.05;99113.56;248617;1153;115010;-70
2021/03/19 17:49:08;;;;;;;26.98;16.55;;;;;;;3.06;56.96;99113.88;249569;1146;114916;-77
2021/03/19 17:54:10;;;;;;;31.70;17.73;;;;;;;3.01;57.38;99128.05;250570;1145;114983;-69
2021/03/19 17:59:13;;;;;;;30.25;18.33;;;;;;;2.96;57.48;99124.72;251971;1147;115106;-77
2021/03/19 18:04:15;;;;;;;33.08;19.65;;;;;;;2.90;57.67;99119.63;248468;1147;115530;-77
2021/03/19 18:09:18;;;;;;;34.48;19.15;;;;;;;2.89;58.00;99125.77;249158;1146;115612;-70
2021/03/19 18:14:21;;;;;;;35.80;20.30;;;;;;;2.87;58.03;99120.58;251226;1146;114895;-72
2021/03/19 18:19:24;;;;;;;43.63;23.67;;;;;;;2.88;57.96;99138.06;248383;1146;115776;-77
2021/03/19 18:24:30;;;;;;;35.05;20.50;;;;;;;2.83;58.26;99140.83;251025;1153;115285;-70
2021/03/19 18:29:34;;;;;;;39.93;22.53;;;;;;;2.80;58.21;99140.06;249653;1146;115136;-70
2021/03/19 18:34:37;;;;;;;34.50;21.43;;;;;;;2.79;58.56;99144.46;249897;1145;114945;-78
2021/03/19 18:39:39;;;;;;;44.25;23.40;;;;;;;2.77;58.94;99150.66;251979;1145;115489;-70
2021/03/19 18:44:41;;;;;;;39.17;23.27;;;;;;;2.76;58.76;99148.95;251222;1146;114850;-77
2021/03/19 18:49:44;;;;;;;42.63;24.20;;;;;;;2.76;58.70;99156.83;249960;1146;114791;-77
2021/03/19 18:54:46;;;;;;;42.60;24.68;;;;;;;2.80;59.17;99159.31;249477;1146;114965;-72
2021/03/19 18:59:49;;;;;;;42.90;26.15;;;;;;;2.77;58.94;99159.40;251732;1146;115349;-70
2021/03/19 19:04:51;;;;;;;47.07;25.67;;;;;;;2.73;59.05;99162.17;251951;1153;114859;-77
2021/03/19 19:09:54;;;;;;;44.63;26.13;;;;;;;2.75;59.02;99165.59;251978;1146;114546;-71
2021/03/19 19:14:56;;;;;;;44.63;25.93;;;;;;;2.75;58.80;99170.84;252020;1153;115568;-78
2021/03/19 19:19:59;;;;;;;45.88;27.20;;;;;;;2.75;59.33;99176.11;250725;1146;116266;-78
2021/03/19 19:25:03;;;;;;;48.23;26.27;;;;;;;2.68;59.10;99167.53;250873;1146;115349;-72
2021/03/19 19:30:12;;;;;;;48.20;26.40;;;;;;;2.66;59.35;99179.02;251987;1146;115397;-80
2021/03/19 19:35:16;;;;;;;42.53;25.28;;;;;;;2.62;59.27;99182.64;250991;1146;115037;-78
2021/03/19 19:40:18;;;;;;;43.15;25.55;;;;;;;2.62;59.26;99180.01;249901;1146;114645;-72
2021/03/19 19:45:22;;;;;;;35.75;21.75;;;;;;;2.58;59.01;99184.45;250701;1153;115132;-72
2021/03/19 19:50:32;;;;;;;41.73;24.10;;;;;;;2.51;59.33;99189.01;251980;1146;115080;-77
2021/03/19 19:55:35;;;;;;;43.73;24.97;;;;;;;2.53;59.45;99196.87;251430;1147;115070;-70
2021/03/19 20:00:37;;;;;;;43.90;24.10;;;;;;;2.52;59.62;99197.78;250481;1146;114940;-77
2021/03/19 20:05:40;;;;;;;53.68;28.03;;;;;;;2.49;59.65;99201.34;249438;1147;115025;-72
2021/03/19 20:10:42;;;;;;;51.30;30.03;;;;;;;2.45;59.37;99201.48;250047;1146;115058;-71
2021/03/19 20:15:46;;;;;;;56.50;29.13;;;;;;;2.44;59.40;99200.59;251738;1151;115092;-79
2021/03/19 20:20:49;;;;;;;57.07;31.17;;;;;;;2.39;59.80;99197.23;251440;1146;115511;-73
2021/03/19 20:25:52;;;;;;;58.13;30.93;;;;;;;2.33;59.53;99195.63;251844;1146;114500;-72
2021/03/19 20:30:57;;;;;;;51.83;30.00;;;;;;;2.31;59.94;99199.18;249465;1153;115230;-72
2021/03/19 20:35:59;;;;;;;61.90;32.75;;;;;;;2.27;59.71;99201.02;248834;1147;115423;-74
2021/03/19 20:41:02;;;;;;;58.38;32.15;;;;;;;2.24;59.88;99205.50;250633;1146;115092;-74
2021/03/19 20:46:05;;;;;;;61.13;32.80;;;;;;;2.12;59.73;99212.80;251979;1146;114858;-79
2021/03/19 20:51:14;;;;;;;70.70;37.35;;;;;;;2.05;59.71;99226.11;250897;1146;117001;-71
2021/03/19 20:56:20;;;;;;;71.93;39.43;;;;;;;2.08;60.49;99226.04;251916;1147;114824;-71
2021/03/19 21:01:30;;;;;;;118.13;63.65;;;;;;;2.09;59.90;99225.98;252028;1153;114736;-72
2021/03/19 21:06:45;;;;;;;69.45;37.30;;;;;;;2.08;60.05;99223.41;249695;1146;115196;-80
2021/03/19 21:11:52;;;;;;;75.25;40.35;;;;;;;2.08;60.26;99226.90;250247;1153;114931;-79
2021/03/19 21:16:58;;;;;;;80.03;43.43;;;;;;;2.06;60.04;99233.94;251752;1147;115352;-81
2021/03/19 21:22:04;;;;;;;78.25;41.53;;;;;;;2.06;59.69;99236.56;252007;1146;115023;-73
2021/03/19 21:27:11;;;;;;;76.05;42.55;;;;;;;2.08;59.73;99237.40;251866;1146;114977;-73
2021/03/19 21:32:13;;;;;;;72.35;39.53;;;;;;;2.06;59.66;99246.20;251808;1153;115579;-81
2021/03/19 21:37:49;;;;;;;77.68;42.85;;;;;;;2.02;59.77;99250.66;252140;1146;115466;-72
2021/03/19 21:42:51;;;;;;;75.35;42.50;;;;;;;2.01;59.76;99251.58;250115;1146;114788;-80
2021/03/19 21:55:39;;;;;;;77.57;41.27;;;;;;;1.95;59.79;99261.35;251983;1146;114664;-68
2021/03/19 22:00:42;;;;;;;83.47;45.27;;;;;;;1.96;59.51;99258.67;252045;1146;115129;-69
2021/03/19 22:05:45;;;;;;;79.55;41.03;;;;;;;1.95;59.54;99266.60;251255;1146;114749;-79
2021/03/19 22:10:47;;;;;;;79.28;40.53;;;;;;;1.96;59.86;99269.17;251837;1153;116148;-71
2021/03/19 22:15:50;;;;;;;83.60;42.90;;;;;;;2.00;59.90;99270.82;251359;1146;114910;-79
2021/03/19 22:20:54;;;;;;;84.20;42.10;;;;;;;2.03;59.59;99283.88;248924;1146;115206;-78
2021/03/19 22:25:57;;;;;;;87.20;43.68;;;;;;;2.04;59.85;99277.75;250854;1146;114714;-77
2021/03/19 22:30:59;;;;;;;87.43;45.08;;;;;;;2.04;59.71;99282.14;252027;1153;114920;-79
2021/03/19 22:36:04;;;;;;;84.60;43.27;;;;;;;2.04;59.77;99280.38;251080;1146;115573;-80
2021/03/19 22:41:07;;;;;;;78.00;40.65;;;;;;;2.07;59.24;99282.04;249451;1146;115066;-80
2021/03/19 22:46:14;;;;;;;79.03;38.38;;;;;;;2.08;59.69;99289.03;247461;1146;115042;-81
2021/03/19 22:51:18;;;;;;;78.40;41.40;;;;;;;2.06;60.02;99291.68;250900;1146;114968;-73
2021/03/19 22:56:21;;;;;;;70.20;38.40;;;;;;;2.06;59.96;99290.83;247899;1147;115033;-74
2021/03/19 23:01:36;;;;;;;87.70;46.10;;;;;;;2.05;59.96;99297.84;251390;1153;114714;-74
2021/03/19 23:06:38;;;;;;;81.15;44.70;;;;;;;2.04;60.12;99298.75;251623;1153;115142;-80
2021/03/19 23:11:41;;;;;;;81.27;44.17;;;;;;;2.03;60.15;99302.25;247945;1153;115168;-80
2021/03/19 23:16:43;;;;;;;79.50;44.83;;;;;;;2.01;60.31;99305.83;251974;1146;114592;-80
2021/03/19 23:21:47;;;;;;;81.35;43.10;;;;;;;2.02;60.71;99310.17;251817;1147;114665;-80
2021/03/19 23:27:02;;;;;;;58.03;32.38;;;;;;;2.05;60.62;99310.97;252104;1146;115212;-73